sensor_id;sensor_type;location;lat;lon;timestamp;pressure;altitude;pressure_sealevel;temperature;humidity
53514;BME280;39768;54.148;12.174;2023-12-14T00:03:54;100865.50;;;2.27;100.00
53514;BME280;39768;54.148;12.174;2023-12-14T00:07:55;100868.91;;;1.85;100.00
53514;BME280;39768;54.148;12.174;2023-12-14T00:11:57;100885.66;;;2.02;100.00
53514;BME280;39768;54.148;12.174;2023-12-14T00:15:59;100880.31;;;1.84;100.00
53514;BME280;39768;54.148;12.174;2023-12-14T00:20:00;100886.56;;;2.07;100.00
53514;BME280;39768;54.148;12.174;2023-12-14T00:24:02;100884.88;;;2.26;100.00
53514;BME280;39768;54.148;12.174;2023-12-14T00:28:04;100887.56;;;2.68;100.00
53514;BME280;39768;54.148;12.174;2023-12-14T00:32:06;100892.78;;;2.42;100.00
53514;BME280;39768;54.148;12.174;2023-12-14T00:36:08;100889.28;;;2.40;100.00
53514;BME280;39768;54.148;12.174;2023-12-14T00:40:10;100888.41;;;2.61;100.00
53514;BME280;39768;54.148;12.174;2023-12-14T00:44:12;100898.09;;;2.59;100.00
53514;BME280;39768;54.148;12.174;2023-12-14T00:48:13;100898.97;;;2.49;100.00
53514;BME280;39768;54.148;12.174;2023-12-14T00:52:15;100897.94;;;1.82;100.00
53514;BME280;39768;54.148;12.174;2023-12-14T00:56:16;100914.59;;;1.76;100.00
53514;BME280;39768;54.148;12.174;2023-12-14T01:00:20;100927.97;;;2.20;100.00
53514;BME280;39768;54.148;12.174;2023-12-14T01:04:21;100936.56;;;1.67;100.00
53514;BME280;39768;54.148;12.174;2023-12-14T01:08:23;100936.72;;;2.13;100.00
53514;BME280;39768;54.148;12.174;2023-12-14T01:12:24;100948.06;;;1.80;100.00
53514;BME280;39768;54.148;12.174;2023-12-14T01:16:26;100945.34;;;1.72;100.00
53514;BME280;39768;54.148;12.174;2023-12-14T01:20:28;100956.06;;;2.03;100.00
53514;BME280;39768;54.148;12.174;2023-12-14T01:24:30;100962.13;;;1.82;100.00
53514;BME280;39768;54.148;12.174;2023-12-14T01:28:32;100975.63;;;2.57;100.00
53514;BME280;39768;54.148;12.174;2023-12-14T01:32:34;100985.16;;;2.11;100.00
53514;BME280;39768;54.148;12.174;2023-12-14T01:36:35;100988.78;;;2.48;100.00
53514;BME280;39768;54.148;12.174;2023-12-14T01:40:37;100988.56;;;1.91;100.00
53514;BME280;39768;54.148;12.174;2023-12-14T01:44:39;100997.28;;;1.78;100.00
53514;BME280;39768;54.148;12.174;2023-12-14T01:48:40;100992.16;;;2.13;100.00
53514;BME280;39768;54.148;12.174;2023-12-14T01:52:42;100988.44;;;1.65;100.00
53514;BME280;39768;54.148;12.174;2023-12-14T01:56:43;100986.88;;;2.05;100.00
53514;BME280;39768;54.148;12.174;2023-12-14T02:05:05;100992.13;;;2.01;100.00
53514;BME280;39768;54.148;12.174;2023-12-14T02:09:07;100997.56;;;2.39;100.00
53514;BME280;39768;54.148;12.174;2023-12-14T02:13:08;101000.84;;;1.86;100.00
53514;BME280;39768;54.148;12.174;2023-12-14T02:17:10;100994.63;;;1.77;100.00
53514;BME280;39768;54.148;12.174;2023-12-14T02:21:12;101003.69;;;2.24;100.00
53514;BME280;39768;54.148;12.174;2023-12-14T02:25:13;101010.50;;;1.86;100.00
53514;BME280;39768;54.148;12.174;2023-12-14T02:29:15;101011.28;;;1.65;100.00
53514;BME280;39768;54.148;12.174;2023-12-14T02:33:17;101009.59;;;1.78;100.00
53514;BME280;39768;54.148;12.174;2023-12-14T02:37:18;101012.63;;;2.70;100.00
53514;BME280;39768;54.148;12.174;2023-12-14T02:41:21;101009.75;;;2.06;100.00
53514;BME280;39768;54.148;12.174;2023-12-14T02:45:22;101008.97;;;2.24;100.00
53514;BME280;39768;54.148;12.174;2023-12-14T02:49:24;101005.19;;;1.77;100.00
53514;BME280;39768;54.148;12.174;2023-12-14T02:53:25;101008.00;;;2.08;100.00
53514;BME280;39768;54.148;12.174;2023-12-14T02:57:28;100999.31;;;2.44;100.00
53514;BME280;39768;54.148;12.174;2023-12-14T03:01:29;101008.09;;;2.34;100.00
53514;BME280;39768;54.148;12.174;2023-12-14T03:05:31;101010.00;;;2.84;100.00
53514;BME280;39768;54.148;12.174;2023-12-14T03:09:33;101032.81;;;2.52;100.00
53514;BME280;39768;54.148;12.174;2023-12-14T03:13:35;101030.28;;;2.85;100.00
53514;BME280;39768;54.148;12.174;2023-12-14T03:17:36;101032.88;;;2.73;100.00
53514;BME280;39768;54.148;12.174;2023-12-14T03:21:38;101043.47;;;2.90;100.00
53514;BME280;39768;54.148;12.174;2023-12-14T03:25:40;101051.41;;;2.84;100.00
53514;BME280;39768;54.148;12.174;2023-12-14T03:29:41;101050.38;;;2.39;100.00
53514;BME280;39768;54.148;12.174;2023-12-14T03:33:43;101053.78;;;2.15;100.00
53514;BME280;39768;54.148;12.174;2023-12-14T03:37:45;101063.59;;;2.37;100.00
53514;BME280;39768;54.148;12.174;2023-12-14T03:41:46;101072.28;;;2.12;100.00
53514;BME280;39768;54.148;12.174;2023-12-14T03:45:48;101076.84;;;2.53;100.00
53514;BME280;39768;54.148;12.174;2023-12-14T03:49:49;101083.91;;;2.58;100.00
53514;BME280;39768;54.148;12.174;2023-12-14T03:53:51;101097.72;;;2.04;100.00
53514;BME280;39768;54.148;12.174;2023-12-14T03:57:52;101097.88;;;2.31;100.00
53514;BME280;39768;54.148;12.174;2023-12-14T04:01:54;101111.25;;;2.68;100.00
53514;BME280;39768;54.148;12.174;2023-12-14T04:05:56;101114.44;;;2.06;100.00
53514;BME280;39768;54.148;12.174;2023-12-14T04:09:57;101120.94;;;2.66;100.00
53514;BME280;39768;54.148;12.174;2023-12-14T04:13:59;101128.75;;;2.41;100.00
53514;BME280;39768;54.148;12.174;2023-12-14T04:18:00;101115.63;;;2.57;100.00
53514;BME280;39768;54.148;12.174;2023-12-14T04:22:02;101118.25;;;2.60;100.00
53514;BME280;39768;54.148;12.174;2023-12-14T04:26:04;101121.63;;;2.31;100.00
53514;BME280;39768;54.148;12.174;2023-12-14T04:30:06;101124.19;;;2.12;100.00
53514;BME280;39768;54.148;12.174;2023-12-14T04:34:11;101144.50;;;2.28;100.00
53514;BME280;39768;54.148;12.174;2023-12-14T04:38:17;101152.38;;;2.20;100.00
53514;BME280;39768;54.148;12.174;2023-12-14T04:42:18;101148.03;;;2.31;100.00
53514;BME280;39768;54.148;12.174;2023-12-14T04:46:20;101151.66;;;2.49;100.00
53514;BME280;39768;54.148;12.174;2023-12-14T04:50:21;101162.22;;;2.46;100.00
53514;BME280;39768;54.148;12.174;2023-12-14T04:54:23;101172.03;;;2.68;100.00
53514;BME280;39768;54.148;12.174;2023-12-14T04:58:24;101175.72;;;3.06;100.00
53514;BME280;39768;54.148;12.174;2023-12-14T05:02:26;101179.97;;;2.69;100.00
53514;BME280;39768;54.148;12.174;2023-12-14T05:06:27;101182.06;;;1.89;100.00
53514;BME280;39768;54.148;12.174;2023-12-14T05:10:29;101187.44;;;2.01;100.00
53514;BME280;39768;54.148;12.174;2023-12-14T05:14:30;101193.06;;;2.50;100.00
53514;BME280;39768;54.148;12.174;2023-12-14T05:18:32;101189.50;;;2.46;100.00
53514;BME280;39768;54.148;12.174;2023-12-14T05:22:33;101193.91;;;2.46;100.00
53514;BME280;39768;54.148;12.174;2023-12-14T05:26:35;101190.56;;;2.77;100.00
53514;BME280;39768;54.148;12.174;2023-12-14T05:30:37;101203.50;;;2.30;100.00
53514;BME280;39768;54.148;12.174;2023-12-14T05:34:39;101210.63;;;2.40;100.00
53514;BME280;39768;54.148;12.174;2023-12-14T05:38:41;101223.69;;;2.20;100.00
53514;BME280;39768;54.148;12.174;2023-12-14T05:42:43;101232.31;;;2.01;100.00
53514;BME280;39768;54.148;12.174;2023-12-14T05:46:44;101242.44;;;2.55;100.00
53514;BME280;39768;54.148;12.174;2023-12-14T05:50:46;101247.25;;;2.00;100.00
53514;BME280;39768;54.148;12.174;2023-12-14T05:54:47;101251.00;;;2.25;100.00
53514;BME280;39768;54.148;12.174;2023-12-14T05:58:49;101261.09;;;1.73;100.00
53514;BME280;39768;54.148;12.174;2023-12-14T06:02:51;101253.34;;;1.90;100.00
53514;BME280;39768;54.148;12.174;2023-12-14T06:06:53;101259.28;;;1.71;100.00
53514;BME280;39768;54.148;12.174;2023-12-14T06:10:54;101266.41;;;1.78;100.00
53514;BME280;39768;54.148;12.174;2023-12-14T06:14:59;101279.50;;;1.67;100.00
53514;BME280;39768;54.148;12.174;2023-12-14T06:19:00;101287.53;;;1.80;100.00
53514;BME280;39768;54.148;12.174;2023-12-14T06:23:02;101290.34;;;1.98;100.00
53514;BME280;39768;54.148;12.174;2023-12-14T06:27:04;101295.84;;;2.21;100.00
53514;BME280;39768;54.148;12.174;2023-12-14T06:31:05;101301.44;;;2.60;100.00
53514;BME280;39768;54.148;12.174;2023-12-14T06:35:07;101301.25;;;2.34;100.00
53514;BME280;39768;54.148;12.174;2023-12-14T06:39:09;101301.91;;;2.09;100.00
53514;BME280;39768;54.148;12.174;2023-12-14T06:43:10;101296.97;;;1.58;100.00
53514;BME280;39768;54.148;12.174;2023-12-14T06:47:12;101307.75;;;1.78;100.00
53514;BME280;39768;54.148;12.174;2023-12-14T06:51:15;101316.28;;;2.43;100.00
53514;BME280;39768;54.148;12.174;2023-12-14T06:55:17;101324.88;;;2.18;100.00
53514;BME280;39768;54.148;12.174;2023-12-14T06:59:18;101332.59;;;1.96;100.00
53514;BME280;39768;54.148;12.174;2023-12-14T07:03:20;101337.78;;;1.90;100.00
53514;BME280;39768;54.148;12.174;2023-12-14T07:07:21;101351.75;;;1.79;100.00
53514;BME280;39768;54.148;12.174;2023-12-14T07:11:23;101359.41;;;2.43;100.00
53514;BME280;39768;54.148;12.174;2023-12-14T07:15:24;101358.56;;;2.41;100.00
53514;BME280;39768;54.148;12.174;2023-12-14T07:19:26;101363.19;;;2.68;100.00
53514;BME280;39768;54.148;12.174;2023-12-14T07:23:27;101370.03;;;2.47;100.00
53514;BME280;39768;54.148;12.174;2023-12-14T07:27:29;101372.63;;;2.42;100.00
53514;BME280;39768;54.148;12.174;2023-12-14T07:31:31;101379.66;;;2.43;100.00
53514;BME280;39768;54.148;12.174;2023-12-14T07:35:35;101393.44;;;2.10;100.00
53514;BME280;39768;54.148;12.174;2023-12-14T07:39:37;101400.00;;;2.49;100.00
53514;BME280;39768;54.148;12.174;2023-12-14T07:43:38;101405.94;;;2.25;100.00
53514;BME280;39768;54.148;12.174;2023-12-14T07:47:40;101418.56;;;2.58;100.00
53514;BME280;39768;54.148;12.174;2023-12-14T07:51:43;101423.88;;;2.61;100.00
53514;BME280;39768;54.148;12.174;2023-12-14T07:55:45;101421.19;;;2.58;100.00
53514;BME280;39768;54.148;12.174;2023-12-14T07:59:46;101428.94;;;2.36;100.00
53514;BME280;39768;54.148;12.174;2023-12-14T08:03:48;101429.72;;;2.29;100.00
53514;BME280;39768;54.148;12.174;2023-12-14T08:07:50;101435.75;;;2.18;100.00
53514;BME280;39768;54.148;12.174;2023-12-14T08:11:53;101443.22;;;1.80;100.00
53514;BME280;39768;54.148;12.174;2023-12-14T08:15:55;101457.16;;;2.43;100.00
53514;BME280;39768;54.148;12.174;2023-12-14T08:19:57;101450.19;;;2.49;100.00
53514;BME280;39768;54.148;12.174;2023-12-14T08:23:58;101455.78;;;2.81;100.00
53514;BME280;39768;54.148;12.174;2023-12-14T08:28:00;101466.72;;;2.32;100.00
53514;BME280;39768;54.148;12.174;2023-12-14T08:32:06;101468.44;;;2.27;100.00
53514;BME280;39768;54.148;12.174;2023-12-14T08:36:08;101482.38;;;2.16;100.00
53514;BME280;39768;54.148;12.174;2023-12-14T08:40:10;101482.41;;;2.17;100.00
53514;BME280;39768;54.148;12.174;2023-12-14T08:44:11;101492.03;;;2.12;100.00
53514;BME280;39768;54.148;12.174;2023-12-14T08:48:13;101496.63;;;2.30;100.00
53514;BME280;39768;54.148;12.174;2023-12-14T08:52:15;101507.00;;;2.12;100.00
53514;BME280;39768;54.148;12.174;2023-12-14T08:56:16;101517.50;;;2.08;100.00
53514;BME280;39768;54.148;12.174;2023-12-14T09:00:18;101533.47;;;2.18;100.00
53514;BME280;39768;54.148;12.174;2023-12-14T09:04:20;101531.13;;;2.43;100.00
53514;BME280;39768;54.148;12.174;2023-12-14T09:08:22;101532.91;;;2.46;100.00
53514;BME280;39768;54.148;12.174;2023-12-14T09:12:24;101537.50;;;2.61;100.00
53514;BME280;39768;54.148;12.174;2023-12-14T09:16:25;101553.91;;;1.67;100.00
53514;BME280;39768;54.148;12.174;2023-12-14T09:20:27;101553.97;;;2.37;100.00
53514;BME280;39768;54.148;12.174;2023-12-14T09:24:29;101556.56;;;2.35;100.00
53514;BME280;39768;54.148;12.174;2023-12-14T09:28:30;101554.31;;;1.99;100.00
53514;BME280;39768;54.148;12.174;2023-12-14T09:32:32;101568.41;;;1.97;100.00
53514;BME280;39768;54.148;12.174;2023-12-14T09:36:34;101563.13;;;1.41;100.00
53514;BME280;39768;54.148;12.174;2023-12-14T09:40:35;101558.22;;;2.27;100.00
53514;BME280;39768;54.148;12.174;2023-12-14T09:44:37;101568.44;;;2.01;100.00
53514;BME280;39768;54.148;12.174;2023-12-14T09:48:39;101567.88;;;2.24;100.00
53514;BME280;39768;54.148;12.174;2023-12-14T09:52:41;101572.75;;;1.95;100.00
53514;BME280;39768;54.148;12.174;2023-12-14T09:56:47;101572.09;;;2.13;100.00
53514;BME280;39768;54.148;12.174;2023-12-14T10:00:49;101572.97;;;2.10;100.00
53514;BME280;39768;54.148;12.174;2023-12-14T10:04:51;101578.38;;;2.19;100.00
53514;BME280;39768;54.148;12.174;2023-12-14T10:08:55;101580.03;;;2.11;100.00
53514;BME280;39768;54.148;12.174;2023-12-14T10:12:59;101584.88;;;2.46;100.00
53514;BME280;39768;54.148;12.174;2023-12-14T10:21:18;101596.78;;;2.15;100.00
53514;BME280;39768;54.148;12.174;2023-12-14T10:25:20;101597.94;;;2.35;100.00
53514;BME280;39768;54.148;12.174;2023-12-14T10:29:21;101608.88;;;1.99;100.00
53514;BME280;39768;54.148;12.174;2023-12-14T10:33:23;101607.72;;;2.43;100.00
53514;BME280;39768;54.148;12.174;2023-12-14T10:37:25;101608.94;;;2.68;100.00
53514;BME280;39768;54.148;12.174;2023-12-14T10:41:27;101606.69;;;2.31;100.00
53514;BME280;39768;54.148;12.174;2023-12-14T10:45:32;101607.31;;;2.10;100.00
53514;BME280;39768;54.148;12.174;2023-12-14T10:49:35;101618.69;;;2.74;100.00
53514;BME280;39768;54.148;12.174;2023-12-14T10:53:38;101625.41;;;2.48;100.00
53514;BME280;39768;54.148;12.174;2023-12-14T10:57:40;101621.47;;;2.17;100.00
53514;BME280;39768;54.148;12.174;2023-12-14T11:01:51;101618.84;;;2.18;100.00
53514;BME280;39768;54.148;12.174;2023-12-14T11:05:53;101626.03;;;2.27;100.00
53514;BME280;39768;54.148;12.174;2023-12-14T11:10:10;101636.97;;;2.56;100.00
53514;BME280;39768;54.148;12.174;2023-12-14T11:14:13;101645.72;;;1.91;100.00
53514;BME280;39768;54.148;12.174;2023-12-14T11:22:25;101650.28;;;2.65;100.00
53514;BME280;39768;54.148;12.174;2023-12-14T11:26:28;101655.50;;;2.59;100.00
53514;BME280;39768;54.148;12.174;2023-12-14T11:30:31;101661.06;;;2.17;100.00
53514;BME280;39768;54.148;12.174;2023-12-14T11:34:49;101664.69;;;2.90;100.00
53514;BME280;39768;54.148;12.174;2023-12-14T11:38:50;101663.53;;;2.66;100.00
53514;BME280;39768;54.148;12.174;2023-12-14T11:43:01;101673.28;;;2.72;100.00
53514;BME280;39768;54.148;12.174;2023-12-14T11:47:08;101673.53;;;2.92;100.00
53514;BME280;39768;54.148;12.174;2023-12-14T11:51:10;101684.63;;;2.63;100.00
53514;BME280;39768;54.148;12.174;2023-12-14T11:55:12;101682.41;;;2.30;100.00
53514;BME280;39768;54.148;12.174;2023-12-14T11:59:16;101693.97;;;1.83;100.00
53514;BME280;39768;54.148;12.174;2023-12-14T12:03:22;101693.22;;;2.47;100.00
53514;BME280;39768;54.148;12.174;2023-12-14T12:07:24;101700.78;;;2.88;100.00
53514;BME280;39768;54.148;12.174;2023-12-14T12:11:26;101705.88;;;2.71;100.00
53514;BME280;39768;54.148;12.174;2023-12-14T12:15:29;101700.28;;;3.18;100.00
53514;BME280;39768;54.148;12.174;2023-12-14T12:19:34;101717.38;;;2.74;100.00
53514;BME280;39768;54.148;12.174;2023-12-14T12:23:35;101711.13;;;3.37;100.00
53514;BME280;39768;54.148;12.174;2023-12-14T12:27:37;101720.50;;;3.11;100.00
53514;BME280;39768;54.148;12.174;2023-12-14T12:31:39;101719.06;;;2.09;100.00
53514;BME280;39768;54.148;12.174;2023-12-14T12:35:41;101710.22;;;2.66;100.00
53514;BME280;39768;54.148;12.174;2023-12-14T12:39:43;101714.44;;;2.53;100.00
53514;BME280;39768;54.148;12.174;2023-12-14T12:43:44;101722.28;;;3.13;100.00
53514;BME280;39768;54.148;12.174;2023-12-14T12:47:46;101719.38;;;2.94;100.00
53514;BME280;39768;54.148;12.174;2023-12-14T12:51:48;101733.53;;;2.97;100.00
53514;BME280;39768;54.148;12.174;2023-12-14T12:55:49;101743.44;;;3.13;100.00
53514;BME280;39768;54.148;12.174;2023-12-14T12:59:51;101744.72;;;2.76;100.00
53514;BME280;39768;54.148;12.174;2023-12-14T13:03:54;101742.25;;;2.90;100.00
53514;BME280;39768;54.148;12.174;2023-12-14T13:07:57;101752.00;;;1.80;100.00
53514;BME280;39768;54.148;12.174;2023-12-14T13:11:59;101753.09;;;2.47;100.00
53514;BME280;39768;54.148;12.174;2023-12-14T13:16:01;101750.38;;;2.40;100.00
53514;BME280;39768;54.148;12.174;2023-12-14T13:20:02;101756.47;;;2.36;100.00
53514;BME280;39768;54.148;12.174;2023-12-14T13:24:04;101772.47;;;1.93;100.00
53514;BME280;39768;54.148;12.174;2023-12-14T13:28:06;101771.38;;;2.33;100.00
53514;BME280;39768;54.148;12.174;2023-12-14T13:32:08;101779.22;;;2.27;100.00
53514;BME280;39768;54.148;12.174;2023-12-14T13:36:10;101789.47;;;2.10;100.00
53514;BME280;39768;54.148;12.174;2023-12-14T13:40:12;101792.34;;;1.29;100.00
53514;BME280;39768;54.148;12.174;2023-12-14T13:44:16;101790.69;;;1.79;100.00
53514;BME280;39768;54.148;12.174;2023-12-14T13:48:18;101795.41;;;1.97;100.00
53514;BME280;39768;54.148;12.174;2023-12-14T13:52:20;101803.78;;;2.23;100.00
53514;BME280;39768;54.148;12.174;2023-12-14T13:56:21;101808.66;;;2.01;100.00
53514;BME280;39768;54.148;12.174;2023-12-14T14:00:23;101809.63;;;1.58;100.00
53514;BME280;39768;54.148;12.174;2023-12-14T14:04:25;101808.44;;;1.88;100.00
53514;BME280;39768;54.148;12.174;2023-12-14T14:08:28;101823.03;;;2.70;100.00
53514;BME280;39768;54.148;12.174;2023-12-14T14:12:30;101826.38;;;2.07;100.00
53514;BME280;39768;54.148;12.174;2023-12-14T14:16:31;101835.06;;;2.51;100.00
53514;BME280;39768;54.148;12.174;2023-12-14T14:20:32;101851.44;;;1.82;100.00
53514;BME280;39768;54.148;12.174;2023-12-14T14:24:34;101863.53;;;2.67;100.00
53514;BME280;39768;54.148;12.174;2023-12-14T14:28:37;101866.00;;;1.62;100.00
53514;BME280;39768;54.148;12.174;2023-12-14T14:32:38;101869.81;;;2.77;98.61
53514;BME280;39768;54.148;12.174;2023-12-14T14:36:41;101876.94;;;1.82;98.61
53514;BME280;39768;54.148;12.174;2023-12-14T14:40:42;101882.84;;;2.15;100.00
53514;BME280;39768;54.148;12.174;2023-12-14T14:44:44;101885.78;;;2.30;99.69
53514;BME280;39768;54.148;12.174;2023-12-14T14:48:46;101897.44;;;2.43;99.37
53514;BME280;39768;54.148;12.174;2023-12-14T14:52:48;101906.47;;;2.54;97.01
53514;BME280;39768;54.148;12.174;2023-12-14T14:56:50;101912.84;;;2.67;97.87
53514;BME280;39768;54.148;12.174;2023-12-14T15:00:51;101913.59;;;2.60;97.53
53514;BME280;39768;54.148;12.174;2023-12-14T15:04:53;101920.09;;;2.80;96.28
53514;BME280;39768;54.148;12.174;2023-12-14T15:08:55;101929.41;;;2.58;97.13
53514;BME280;39768;54.148;12.174;2023-12-14T15:12:57;101931.22;;;2.61;96.47
53514;BME280;39768;54.148;12.174;2023-12-14T15:16:58;101939.94;;;2.54;97.40
53514;BME280;39768;54.148;12.174;2023-12-14T15:21:00;101948.75;;;2.54;96.07
53514;BME280;39768;54.148;12.174;2023-12-14T15:25:01;101951.41;;;2.56;96.63
53514;BME280;39768;54.148;12.174;2023-12-14T15:29:05;101959.25;;;2.51;95.89
53514;BME280;39768;54.148;12.174;2023-12-14T15:33:07;101951.53;;;2.17;99.74
53514;BME280;39768;54.148;12.174;2023-12-14T15:37:10;101954.59;;;1.93;100.00
53514;BME280;39768;54.148;12.174;2023-12-14T15:41:12;101960.59;;;2.29;99.64
53514;BME280;39768;54.148;12.174;2023-12-14T15:45:14;101961.13;;;2.10;100.00
53514;BME280;39768;54.148;12.174;2023-12-14T15:49:16;101961.22;;;2.16;100.00
53514;BME280;39768;54.148;12.174;2023-12-14T15:53:17;101978.47;;;1.97;100.00
53514;BME280;39768;54.148;12.174;2023-12-14T15:57:19;101981.38;;;2.11;100.00
53514;BME280;39768;54.148;12.174;2023-12-14T16:01:20;101988.41;;;2.56;98.44
53514;BME280;39768;54.148;12.174;2023-12-14T16:05:22;102001.34;;;2.40;98.47
53514;BME280;39768;54.148;12.174;2023-12-14T16:09:24;101995.41;;;2.54;96.42
53514;BME280;39768;54.148;12.174;2023-12-14T16:13:26;102018.34;;;2.55;97.38
53514;BME280;39768;54.148;12.174;2023-12-14T16:17:29;102024.59;;;2.61;96.44
53514;BME280;39768;54.148;12.174;2023-12-14T16:21:32;102027.81;;;2.45;97.12
53514;BME280;39768;54.148;12.174;2023-12-14T16:25:38;102029.69;;;2.51;95.45
53514;BME280;39768;54.148;12.174;2023-12-14T16:29:39;102035.38;;;2.25;96.72
53514;BME280;39768;54.148;12.174;2023-12-14T16:33:41;102034.69;;;2.35;98.31
53514;BME280;39768;54.148;12.174;2023-12-14T16:37:42;102037.31;;;2.81;96.13
53514;BME280;39768;54.148;12.174;2023-12-14T16:41:44;102044.47;;;2.88;93.83
53514;BME280;39768;54.148;12.174;2023-12-14T16:45:46;102038.34;;;2.43;95.44
53514;BME280;39768;54.148;12.174;2023-12-14T16:49:48;102034.66;;;2.81;94.56
53514;BME280;39768;54.148;12.174;2023-12-14T16:53:50;102038.84;;;2.68;93.60
53514;BME280;39768;54.148;12.174;2023-12-14T16:57:52;102039.88;;;2.76;93.45
53514;BME280;39768;54.148;12.174;2023-12-14T17:01:53;102038.16;;;2.78;92.67
53514;BME280;39768;54.148;12.174;2023-12-14T17:05:55;102043.28;;;2.25;99.03
53514;BME280;39768;54.148;12.174;2023-12-14T17:09:56;102063.16;;;2.50;96.95
53514;BME280;39768;54.148;12.174;2023-12-14T17:13:58;102072.13;;;2.58;96.62
53514;BME280;39768;54.148;12.174;2023-12-14T17:18:00;102074.03;;;2.65;95.67
53514;BME280;39768;54.148;12.174;2023-12-14T17:22:01;102079.41;;;2.26;96.63
53514;BME280;39768;54.148;12.174;2023-12-14T17:26:03;102074.91;;;1.82;100.00
53514;BME280;39768;54.148;12.174;2023-12-14T17:30:05;102077.00;;;1.96;100.00
53514;BME280;39768;54.148;12.174;2023-12-14T17:34:11;102079.16;;;2.58;97.24
53514;BME280;39768;54.148;12.174;2023-12-14T17:38:13;102078.13;;;2.50;96.76
53514;BME280;39768;54.148;12.174;2023-12-14T17:42:14;102086.81;;;2.44;97.41
53514;BME280;39768;54.148;12.174;2023-12-14T17:46:20;102088.03;;;2.61;96.87
53514;BME280;39768;54.148;12.174;2023-12-14T17:50:23;102089.72;;;2.56;96.22
53514;BME280;39768;54.148;12.174;2023-12-14T17:54:24;102097.53;;;2.52;95.45
53514;BME280;39768;54.148;12.174;2023-12-14T17:58:26;102099.31;;;2.53;94.84
53514;BME280;39768;54.148;12.174;2023-12-14T18:02:27;102109.06;;;2.15;97.40
53514;BME280;39768;54.148;12.174;2023-12-14T18:06:29;102109.03;;;2.13;100.00
53514;BME280;39768;54.148;12.174;2023-12-14T18:10:31;102109.56;;;2.37;97.90
53514;BME280;39768;54.148;12.174;2023-12-14T18:14:32;102111.69;;;2.15;96.45
53514;BME280;39768;54.148;12.174;2023-12-14T18:18:34;102110.44;;;1.96;98.18
53514;BME280;39768;54.148;12.174;2023-12-14T18:22:35;102116.56;;;1.95;99.01
53514;BME280;39768;54.148;12.174;2023-12-14T18:26:37;102126.09;;;2.29;100.00
53514;BME280;39768;54.148;12.174;2023-12-14T18:30:39;102133.97;;;2.26;97.80
53514;BME280;39768;54.148;12.174;2023-12-14T18:34:40;102123.09;;;1.75;100.00
53514;BME280;39768;54.148;12.174;2023-12-14T18:38:43;102126.84;;;1.84;100.00
53514;BME280;39768;54.148;12.174;2023-12-14T18:42:44;102132.28;;;1.90;100.00
53514;BME280;39768;54.148;12.174;2023-12-14T18:46:46;102134.22;;;1.97;99.38
53514;BME280;39768;54.148;12.174;2023-12-14T18:50:48;102133.13;;;1.89;99.69
53514;BME280;39768;54.148;12.174;2023-12-14T18:54:50;102144.22;;;1.75;100.00
53514;BME280;39768;54.148;12.174;2023-12-14T18:58:51;102151.44;;;1.83;100.00
53514;BME280;39768;54.148;12.174;2023-12-14T19:02:53;102142.91;;;1.93;100.00
53514;BME280;39768;54.148;12.174;2023-12-14T19:06:54;102147.06;;;1.82;100.00
53514;BME280;39768;54.148;12.174;2023-12-14T19:10:56;102150.91;;;1.96;100.00
53514;BME280;39768;54.148;12.174;2023-12-14T19:14:57;102166.63;;;1.92;100.00
53514;BME280;39768;54.148;12.174;2023-12-14T19:18:59;102166.50;;;2.23;96.76
53514;BME280;39768;54.148;12.174;2023-12-14T19:23:02;102169.06;;;2.20;95.94
53514;BME280;39768;54.148;12.174;2023-12-14T19:27:03;102170.78;;;2.18;96.42
53514;BME280;39768;54.148;12.174;2023-12-14T19:31:05;102175.97;;;2.15;95.84
53514;BME280;39768;54.148;12.174;2023-12-14T19:35:08;102172.41;;;2.13;96.78
53514;BME280;39768;54.148;12.174;2023-12-14T19:39:10;102174.16;;;2.13;96.15
53514;BME280;39768;54.148;12.174;2023-12-14T19:43:12;102189.78;;;2.03;95.52
53514;BME280;39768;54.148;12.174;2023-12-14T19:47:13;102198.53;;;2.01;96.52
53514;BME280;39768;54.148;12.174;2023-12-14T19:51:15;102203.00;;;2.03;95.75
53514;BME280;39768;54.148;12.174;2023-12-14T19:55:16;102205.69;;;2.05;96.33
53514;BME280;39768;54.148;12.174;2023-12-14T19:59:18;102208.28;;;2.03;95.78
53514;BME280;39768;54.148;12.174;2023-12-14T20:03:20;102210.50;;;1.87;99.51
53514;BME280;39768;54.148;12.174;2023-12-14T20:07:22;102217.00;;;2.01;95.71
53514;BME280;39768;54.148;12.174;2023-12-14T20:11:23;102224.88;;;1.99;96.32
53514;BME280;39768;54.148;12.174;2023-12-14T20:15:25;102237.19;;;1.99;95.75
53514;BME280;39768;54.148;12.174;2023-12-14T20:19:29;102227.44;;;1.95;94.40
53514;BME280;39768;54.148;12.174;2023-12-14T20:23:30;102243.88;;;1.85;94.66
53514;BME280;39768;54.148;12.174;2023-12-14T20:27:32;102247.88;;;1.69;96.91
53514;BME280;39768;54.148;12.174;2023-12-14T20:31:34;102251.84;;;1.52;98.02
53514;BME280;39768;54.148;12.174;2023-12-14T20:35:36;102253.63;;;1.54;97.46
53514;BME280;39768;54.148;12.174;2023-12-14T20:39:38;102257.97;;;1.51;96.13
53514;BME280;39768;54.148;12.174;2023-12-14T20:43:40;102251.09;;;1.26;98.79
53514;BME280;39768;54.148;12.174;2023-12-14T20:47:41;102256.25;;;1.21;99.97
53514;BME280;39768;54.148;12.174;2023-12-14T20:51:43;102242.56;;;1.03;100.00
53514;BME280;39768;54.148;12.174;2023-12-14T20:55:44;102247.88;;;0.76;100.00
53514;BME280;39768;54.148;12.174;2023-12-14T20:59:46;102251.00;;;1.21;100.00
53514;BME280;39768;54.148;12.174;2023-12-14T21:03:51;102261.13;;;1.39;100.00
53514;BME280;39768;54.148;12.174;2023-12-14T21:07:53;102261.59;;;1.23;100.00